sensor_id;sensor_type;location;lat;lon;timestamp;pressure;altitude;pressure_sealevel;temperature;humidity
60852;BME280;48553;50.766;2.900;2024-02-23T00:00:48;98311.31;;;6.33;100.00
60852;BME280;48553;50.766;2.900;2024-02-23T00:03:48;98314.78;;;6.30;100.00
60852;BME280;48553;50.766;2.900;2024-02-23T00:06:49;98307.41;;;6.30;100.00
60852;BME280;48553;50.766;2.900;2024-02-23T00:09:49;98310.91;;;6.31;100.00
60852;BME280;48553;50.766;2.900;2024-02-23T00:12:49;98309.34;;;6.30;100.00
60852;BME280;48553;50.766;2.900;2024-02-23T00:15:50;98318.97;;;6.23;100.00
60852;BME280;48553;50.766;2.900;2024-02-23T00:18:52;98312.34;;;6.24;100.00
60852;BME280;48553;50.766;2.900;2024-02-23T00:21:52;98302.63;;;6.23;100.00
60852;BME280;48553;50.766;2.900;2024-02-23T00:24:53;98316.59;;;6.22;100.00
60852;BME280;48553;50.766;2.900;2024-02-23T00:27:53;98320.84;;;6.19;100.00
60852;BME280;48553;50.766;2.900;2024-02-23T00:30:53;98323.94;;;6.18;100.00
60852;BME280;48553;50.766;2.900;2024-02-23T00:33:54;98301.75;;;6.16;100.00
60852;BME280;48553;50.766;2.900;2024-02-23T00:36:54;98313.84;;;6.18;100.00
60852;BME280;48553;50.766;2.900;2024-02-23T00:39:55;98315.78;;;6.18;100.00
60852;BME280;48553;50.766;2.900;2024-02-23T00:42:55;98313.78;;;6.15;100.00
60852;BME280;48553;50.766;2.900;2024-02-23T00:45:56;98306.78;;;6.14;100.00
60852;BME280;48553;50.766;2.900;2024-02-23T00:48:56;98309.44;;;6.10;100.00
60852;BME280;48553;50.766;2.900;2024-02-23T00:51:56;98316.06;;;6.13;100.00
60852;BME280;48553;50.766;2.900;2024-02-23T00:54:57;98329.25;;;6.11;100.00
60852;BME280;48553;50.766;2.900;2024-02-23T00:57:57;98336.22;;;6.08;100.00
60852;BME280;48553;50.766;2.900;2024-02-23T01:00:59;98329.63;;;6.09;100.00
60852;BME280;48553;50.766;2.900;2024-02-23T01:04:00;98331.94;;;6.07;100.00
60852;BME280;48553;50.766;2.900;2024-02-23T01:07:00;98331.16;;;6.06;100.00
60852;BME280;48553;50.766;2.900;2024-02-23T01:10:01;98338.16;;;6.07;100.00
60852;BME280;48553;50.766;2.900;2024-02-23T01:13:01;98340.88;;;6.07;100.00
60852;BME280;48553;50.766;2.900;2024-02-23T01:16:02;98332.28;;;6.05;100.00
60852;BME280;48553;50.766;2.900;2024-02-23T01:19:02;98332.28;;;6.05;100.00
60852;BME280;48553;50.766;2.900;2024-02-23T01:22:03;98326.81;;;6.02;100.00
60852;BME280;48553;50.766;2.900;2024-02-23T01:25:04;98326.81;;;6.02;100.00
60852;BME280;48553;50.766;2.900;2024-02-23T01:28:04;98329.56;;;6.05;100.00
60852;BME280;48553;50.766;2.900;2024-02-23T01:31:08;98324.50;;;6.04;100.00
60852;BME280;48553;50.766;2.900;2024-02-23T01:34:10;98334.97;;;6.02;100.00
60852;BME280;48553;50.766;2.900;2024-02-23T01:37:11;98333.44;;;6.04;100.00
60852;BME280;48553;50.766;2.900;2024-02-23T01:40:11;98343.53;;;6.04;100.00
60852;BME280;48553;50.766;2.900;2024-02-23T01:43:13;98322.94;;;6.03;100.00
60852;BME280;48553;50.766;2.900;2024-02-23T01:46:13;98317.06;;;6.01;100.00
60852;BME280;48553;50.766;2.900;2024-02-23T01:49:16;98317.44;;;5.99;100.00
60852;BME280;48553;50.766;2.900;2024-02-23T01:52:18;98308.50;;;5.99;100.00
60852;BME280;48553;50.766;2.900;2024-02-23T01:55:20;98307.72;;;5.98;100.00
60852;BME280;48553;50.766;2.900;2024-02-23T01:58:21;98320.09;;;5.96;100.00
60852;BME280;48553;50.766;2.900;2024-02-23T02:01:21;98312.25;;;5.91;100.00
60852;BME280;48553;50.766;2.900;2024-02-23T02:04:22;98293.63;;;5.93;100.00
60852;BME280;48553;50.766;2.900;2024-02-23T02:07:22;98293.69;;;5.96;100.00
60852;BME280;48553;50.766;2.900;2024-02-23T02:10:25;98308.06;;;5.97;100.00
60852;BME280;48553;50.766;2.900;2024-02-23T02:13:30;98300.63;;;5.94;100.00
60852;BME280;48553;50.766;2.900;2024-02-23T02:16:30;98292.47;;;5.94;100.00
60852;BME280;48553;50.766;2.900;2024-02-23T02:19:31;98286.25;;;5.93;100.00
60852;BME280;48553;50.766;2.900;2024-02-23T02:22:34;98294.00;;;5.91;100.00
60852;BME280;48553;50.766;2.900;2024-02-23T02:25:35;98303.34;;;5.94;100.00
60852;BME280;48553;50.766;2.900;2024-02-23T02:28:35;98308.34;;;5.92;100.00
60852;BME280;48553;50.766;2.900;2024-02-23T02:31:36;98297.06;;;5.90;100.00
60852;BME280;48553;50.766;2.900;2024-02-23T02:34:37;98301.72;;;5.89;100.00
60852;BME280;48553;50.766;2.900;2024-02-23T02:37:38;98291.97;;;5.88;100.00
60852;BME280;48553;50.766;2.900;2024-02-23T02:40:39;98281.09;;;5.88;100.00
60852;BME280;48553;50.766;2.900;2024-02-23T02:43:39;98290.50;;;5.91;100.00
60852;BME280;48553;50.766;2.900;2024-02-23T02:46:40;98295.13;;;5.90;100.00
60852;BME280;48553;50.766;2.900;2024-02-23T02:49:41;98287.78;;;5.91;100.00
60852;BME280;48553;50.766;2.900;2024-02-23T02:52:42;98291.97;;;5.88;100.00
60852;BME280;48553;50.766;2.900;2024-02-23T02:55:42;98277.16;;;5.82;100.00
60852;BME280;48553;50.766;2.900;2024-02-23T02:58:43;98283.00;;;5.84;100.00
60852;BME280;48553;50.766;2.900;2024-02-23T03:01:43;98286.44;;;5.81;100.00
60852;BME280;48553;50.766;2.900;2024-02-23T03:04:48;98284.91;;;5.83;100.00
60852;BME280;48553;50.766;2.900;2024-02-23T03:07:48;98288.44;;;5.84;100.00
60852;BME280;48553;50.766;2.900;2024-02-23T03:10:49;98284.91;;;5.83;100.00
60852;BME280;48553;50.766;2.900;2024-02-23T03:13:49;98279.88;;;5.82;100.00
60852;BME280;48553;50.766;2.900;2024-02-23T03:16:50;98285.72;;;5.84;100.00
60852;BME280;48553;50.766;2.900;2024-02-23T03:19:50;98277.56;;;5.84;100.00
60852;BME280;48553;50.766;2.900;2024-02-23T03:22:50;98279.91;;;5.85;100.00
60852;BME280;48553;50.766;2.900;2024-02-23T03:25:51;98271.41;;;5.87;100.00
60852;BME280;48553;50.766;2.900;2024-02-23T03:28:51;98270.63;;;5.86;100.00
60852;BME280;48553;50.766;2.900;2024-02-23T03:31:52;98270.63;;;5.86;100.00
60852;BME280;48553;50.766;2.900;2024-02-23T03:34:52;98257.44;;;5.89;100.00
60852;BME280;48553;50.766;2.900;2024-02-23T03:37:52;98262.47;;;5.86;100.00
60852;BME280;48553;50.766;2.900;2024-02-23T03:40:53;98263.25;;;5.87;100.00
60852;BME280;48553;50.766;2.900;2024-02-23T03:43:54;98251.59;;;5.86;100.00
60852;BME280;48553;50.766;2.900;2024-02-23T03:46:54;98253.16;;;5.88;100.00
60852;BME280;48553;50.766;2.900;2024-02-23T03:49:55;98246.63;;;5.92;100.00
60852;BME280;48553;50.766;2.900;2024-02-23T03:52:55;98236.41;;;5.85;100.00
60852;BME280;48553;50.766;2.900;2024-02-23T03:55:57;98244.56;;;5.85;100.00
60852;BME280;48553;50.766;2.900;2024-02-23T03:58:57;98244.16;;;5.83;100.00
60852;BME280;48553;50.766;2.900;2024-02-23T04:01:58;98234.03;;;5.80;100.00
60852;BME280;48553;50.766;2.900;2024-02-23T04:04:58;98233.28;;;5.83;100.00
60852;BME280;48553;50.766;2.900;2024-02-23T04:07:59;98230.94;;;5.82;100.00
60852;BME280;48553;50.766;2.900;2024-02-23T04:10:59;98226.19;;;5.75;100.00
60852;BME280;48553;50.766;2.900;2024-02-23T04:13:59;98226.63;;;5.77;100.00
60852;BME280;48553;50.766;2.900;2024-02-23T04:17:00;98232.75;;;5.74;100.00
60852;BME280;48553;50.766;2.900;2024-02-23T04:20:05;98223.06;;;5.73;100.00
60852;BME280;48553;50.766;2.900;2024-02-23T04:23:06;98228.50;;;5.73;100.00
60852;BME280;48553;50.766;2.900;2024-02-23T04:26:08;98232.72;;;5.71;100.00
60852;BME280;48553;50.766;2.900;2024-02-23T04:29:08;98236.97;;;5.68;100.00
60852;BME280;48553;50.766;2.900;2024-02-23T04:32:09;98221.44;;;5.69;100.00
60852;BME280;48553;50.766;2.900;2024-02-23T04:35:10;98226.88;;;5.69;100.00
60852;BME280;48553;50.766;2.900;2024-02-23T04:38:11;98227.22;;;5.67;100.00
60852;BME280;48553;50.766;2.900;2024-02-23T04:41:11;98214.47;;;5.71;100.00
60852;BME280;48553;50.766;2.900;2024-02-23T04:44:11;98236.97;;;5.68;100.00
60852;BME280;48553;50.766;2.900;2024-02-23T04:47:12;98226.09;;;5.68;100.00
60852;BME280;48553;50.766;2.900;2024-02-23T04:50:12;98226.44;;;5.67;100.00
60852;BME280;48553;50.766;2.900;2024-02-23T04:53:13;98226.03;;;5.64;100.00
60852;BME280;48553;50.766;2.900;2024-02-23T04:56:13;98221.00;;;5.67;100.00
60852;BME280;48553;50.766;2.900;2024-02-23T04:59:14;98219.03;;;5.63;100.00
60852;BME280;48553;50.766;2.900;2024-02-23T05:02:14;98232.31;;;5.69;100.00
60852;BME280;48553;50.766;2.900;2024-02-23T05:05:16;98213.22;;;5.65;100.00
60852;BME280;48553;50.766;2.900;2024-02-23T05:08:16;98196.91;;;5.65;100.00
60852;BME280;48553;50.766;2.900;2024-02-23T05:11:17;98202.72;;;5.63;100.00
60852;BME280;48553;50.766;2.900;2024-02-23T05:14:17;98208.16;;;5.63;100.00
60852;BME280;48553;50.766;2.900;2024-02-23T05:17:18;98199.59;;;5.61;100.00
60852;BME280;48553;50.766;2.900;2024-02-23T05:20:18;98184.00;;;5.58;100.00
60852;BME280;48553;50.766;2.900;2024-02-23T05:23:19;98184.44;;;5.60;100.00
60852;BME280;48553;50.766;2.900;2024-02-23T05:26:19;98181.72;;;5.60;100.00
60852;BME280;48553;50.766;2.900;2024-02-23T05:29:20;98178.53;;;5.55;100.00
60852;BME280;48553;50.766;2.900;2024-02-23T05:32:22;98174.72;;;5.59;100.00
60852;BME280;48553;50.766;2.900;2024-02-23T05:35:23;98163.50;;;5.61;100.00
60852;BME280;48553;50.766;2.900;2024-02-23T05:38:23;98160.06;;;5.68;100.00
60852;BME280;48553;50.766;2.900;2024-02-23T05:41:23;98179.38;;;5.59;100.00
60852;BME280;48553;50.766;2.900;2024-02-23T05:44:24;98183.66;;;5.60;100.00
60852;BME280;48553;50.766;2.900;2024-02-23T05:47:24;98166.91;;;5.58;100.00
60852;BME280;48553;50.766;2.900;2024-02-23T05:50:25;98167.75;;;5.62;100.00
60852;BME280;48553;50.766;2.900;2024-02-23T05:53:25;98163.88;;;5.63;100.00
60852;BME280;48553;50.766;2.900;2024-02-23T05:56:25;98159.97;;;5.60;100.00
60852;BME280;48553;50.766;2.900;2024-02-23T05:59:26;98152.22;;;5.59;100.00
60852;BME280;48553;50.766;2.900;2024-02-23T06:02:27;98158.00;;;5.57;100.00
60852;BME280;48553;50.766;2.900;2024-02-23T06:05:28;98161.47;;;5.54;100.00
60852;BME280;48553;50.766;2.900;2024-02-23T06:08:28;98165.38;;;5.57;100.00
60852;BME280;48553;50.766;2.900;2024-02-23T06:11:29;98171.59;;;5.57;100.00
60852;BME280;48553;50.766;2.900;2024-02-23T06:14:29;98155.72;;;5.63;100.00
60852;BME280;48553;50.766;2.900;2024-02-23T06:17:29;98163.06;;;5.59;100.00
60852;BME280;48553;50.766;2.900;2024-02-23T06:20:30;98155.63;;;5.56;100.00
60852;BME280;48553;50.766;2.900;2024-02-23T06:23:30;98157.63;;;5.59;100.00
60852;BME280;48553;50.766;2.900;2024-02-23T06:26:31;98172.00;;;5.59;100.00
60852;BME280;48553;50.766;2.900;2024-02-23T06:29:32;98172.00;;;5.59;100.00
60852;BME280;48553;50.766;2.900;2024-02-23T06:32:32;98155.38;;;5.64;100.00
60852;BME280;48553;50.766;2.900;2024-02-23T06:35:32;98161.50;;;5.58;100.00
60852;BME280;48553;50.766;2.900;2024-02-23T06:38:34;98160.72;;;5.57;100.00
60852;BME280;48553;50.766;2.900;2024-02-23T06:41:34;98165.38;;;5.57;100.00
60852;BME280;48553;50.766;2.900;2024-02-23T06:44:35;98158.34;;;5.56;100.00
60852;BME280;48553;50.766;2.900;2024-02-23T06:47:35;98154.50;;;5.57;100.00
60852;BME280;48553;50.766;2.900;2024-02-23T06:50:36;98166.56;;;5.59;100.00
60852;BME280;48553;50.766;2.900;2024-02-23T06:53:36;98176.66;;;5.59;100.00
60852;BME280;48553;50.766;2.900;2024-02-23T06:56:38;98170.38;;;5.55;100.00
60852;BME280;48553;50.766;2.900;2024-02-23T06:59:38;98165.38;;;5.57;100.00
60852;BME280;48553;50.766;2.900;2024-02-23T07:02:38;98179.72;;;5.57;100.00
60852;BME280;48553;50.766;2.900;2024-02-23T07:05:40;98176.66;;;5.59;100.00
60852;BME280;48553;50.766;2.900;2024-02-23T07:08:42;98172.41;;;5.61;100.00
60852;BME280;48553;50.766;2.900;2024-02-23T07:11:42;98183.28;;;5.61;100.00
60852;BME280;48553;50.766;2.900;2024-02-23T07:14:43;98179.00;;;5.60;100.00
60852;BME280;48553;50.766;2.900;2024-02-23T07:17:45;98193.38;;;5.61;100.00
60852;BME280;48553;50.766;2.900;2024-02-23T07:20:45;98183.66;;;5.60;100.00
60852;BME280;48553;50.766;2.900;2024-02-23T07:23:45;98191.78;;;5.60;100.00
60852;BME280;48553;50.766;2.900;2024-02-23T07:26:46;98188.72;;;5.61;100.00
60852;BME280;48553;50.766;2.900;2024-02-23T07:29:46;98194.59;;;5.63;100.00
60852;BME280;48553;50.766;2.900;2024-02-23T07:32:47;98197.28;;;5.63;100.00
60852;BME280;48553;50.766;2.900;2024-02-23T07:35:47;98201.16;;;5.62;100.00
60852;BME280;48553;50.766;2.900;2024-02-23T07:38:47;98204.63;;;5.63;100.00
60852;BME280;48553;50.766;2.900;2024-02-23T07:41:48;98216.34;;;5.67;100.00
60852;BME280;48553;50.766;2.900;2024-02-23T07:44:49;98218.22;;;5.63;100.00
60852;BME280;48553;50.766;2.900;2024-02-23T07:47:49;98214.38;;;5.64;100.00
60852;BME280;48553;50.766;2.900;2024-02-23T07:50:49;98222.88;;;5.62;100.00
60852;BME280;48553;50.766;2.900;2024-02-23T07:53:50;98217.44;;;5.62;100.00
60852;BME280;48553;50.766;2.900;2024-02-23T07:56:50;98221.78;;;5.67;100.00
60852;BME280;48553;50.766;2.900;2024-02-23T07:59:51;98219.06;;;5.67;100.00
60852;BME280;48553;50.766;2.900;2024-02-23T08:02:51;98226.44;;;5.67;100.00
60852;BME280;48553;50.766;2.900;2024-02-23T08:05:52;98227.66;;;5.69;100.00
60852;BME280;48553;50.766;2.900;2024-02-23T08:08:52;98226.88;;;5.69;100.00
60852;BME280;48553;50.766;2.900;2024-02-23T08:11:54;98229.16;;;5.67;100.00
60852;BME280;48553;50.766;2.900;2024-02-23T08:14:54;98246.31;;;5.71;100.00
60852;BME280;48553;50.766;2.900;2024-02-23T08:17:55;98246.34;;;5.74;100.00
60852;BME280;48553;50.766;2.900;2024-02-23T08:20:56;98235.91;;;5.76;100.00
60852;BME280;48553;50.766;2.900;2024-02-23T08:23:56;98253.38;;;5.75;100.00
60852;BME280;48553;50.766;2.900;2024-02-23T08:26:57;98245.22;;;5.75;100.00
60852;BME280;48553;50.766;2.900;2024-02-23T08:29:57;98243.69;;;5.78;100.00
60852;BME280;48553;50.766;2.900;2024-02-23T08:32:58;98252.59;;;5.75;100.00
60852;BME280;48553;50.766;2.900;2024-02-23T08:35:58;98263.88;;;5.77;100.00
60852;BME280;48553;50.766;2.900;2024-02-23T08:38:58;98262.19;;;5.69;100.00
60852;BME280;48553;50.766;2.900;2024-02-23T08:41:59;98245.53;;;5.70;100.00
60852;BME280;48553;50.766;2.900;2024-02-23T08:44:59;98270.75;;;5.71;100.00
60852;BME280;48553;50.766;2.900;2024-02-23T08:48:00;98255.59;;;5.70;100.00
60852;BME280;48553;50.766;2.900;2024-02-23T08:51:00;98273.84;;;5.69;100.00
60852;BME280;48553;50.766;2.900;2024-02-23T08:54:01;98262.97;;;5.69;100.00
60852;BME280;48553;50.766;2.900;2024-02-23T08:57:04;98261.88;;;5.74;100.00
60852;BME280;48553;50.766;2.900;2024-02-23T09:00:05;98263.81;;;5.73;100.00
60852;BME280;48553;50.766;2.900;2024-02-23T09:03:06;98271.53;;;5.71;100.00
60852;BME280;48553;50.766;2.900;2024-02-23T09:06:06;98280.53;;;5.75;100.00
60852;BME280;48553;50.766;2.900;2024-02-23T09:09:07;98271.22;;;5.76;100.00
60852;BME280;48553;50.766;2.900;2024-02-23T09:12:08;98260.34;;;5.76;100.00
60852;BME280;48553;50.766;2.900;2024-02-23T09:15:10;98261.16;;;5.77;100.00
60852;BME280;48553;50.766;2.900;2024-02-23T09:18:11;98266.22;;;5.78;100.00
60852;BME280;48553;50.766;2.900;2024-02-23T09:21:11;98267.38;;;5.77;100.00
60852;BME280;48553;50.766;2.900;2024-02-23T09:24:12;98270.13;;;5.81;100.00
60852;BME280;48553;50.766;2.900;2024-02-23T09:27:13;98277.94;;;5.82;100.00
60852;BME280;48553;50.766;2.900;2024-02-23T09:30:13;98285.72;;;5.84;100.00
60852;BME280;48553;50.766;2.900;2024-02-23T09:33:14;98284.91;;;5.83;100.00
60852;BME280;48553;50.766;2.900;2024-02-23T09:36:14;98293.88;;;5.84;100.00
60852;BME280;48553;50.766;2.900;2024-02-23T09:39:15;98293.06;;;5.83;100.00
60852;BME280;48553;50.766;2.900;2024-02-23T09:42:15;98298.56;;;5.87;100.00
60852;BME280;48553;50.766;2.900;2024-02-23T09:45:18;98307.91;;;5.86;100.00
60852;BME280;48553;50.766;2.900;2024-02-23T09:48:19;98308.72;;;5.90;100.00
60852;BME280;48553;50.766;2.900;2024-02-23T09:51:20;98311.44;;;5.90;100.00
60852;BME280;48553;50.766;2.900;2024-02-23T09:54:23;98318.88;;;5.93;100.00
60852;BME280;48553;50.766;2.900;2024-02-23T09:57:24;98320.81;;;5.93;100.00
60852;BME280;48553;50.766;2.900;2024-02-23T10:00:24;98323.59;;;5.96;100.00
60852;BME280;48553;50.766;2.900;2024-02-23T10:03:27;98326.25;;;5.93;100.00
60852;BME280;48553;50.766;2.900;2024-02-23T10:06:28;98327.81;;;5.94;100.00
60852;BME280;48553;50.766;2.900;2024-02-23T10:09:29;98357.00;;;5.97;100.00
60852;BME280;48553;50.766;2.900;2024-02-23T10:12:29;98333.59;;;5.92;100.00
60852;BME280;48553;50.766;2.900;2024-02-23T10:15:30;98345.28;;;5.93;100.00
60852;BME280;48553;50.766;2.900;2024-02-23T10:18:31;98350.78;;;5.96;100.00
60852;BME280;48553;50.766;2.900;2024-02-23T10:21:32;98363.59;;;5.96;100.00
60852;BME280;48553;50.766;2.900;2024-02-23T10:24:33;98356.56;;;5.95;100.00
60852;BME280;48553;50.766;2.900;2024-02-23T10:27:33;98361.25;;;5.94;100.00
60852;BME280;48553;50.766;2.900;2024-02-23T10:30:36;98368.16;;;5.92;100.00
60852;BME280;48553;50.766;2.900;2024-02-23T10:33:37;98377.09;;;5.92;100.00
60852;BME280;48553;50.766;2.900;2024-02-23T10:36:41;98371.22;;;5.90;100.00
60852;BME280;48553;50.766;2.900;2024-02-23T10:39:45;98376.75;;;5.94;100.00
60852;BME280;48553;50.766;2.900;2024-02-23T10:42:47;98379.56;;;5.97;100.00
60852;BME280;48553;50.766;2.900;2024-02-23T10:45:55;98386.13;;;5.96;100.00
60852;BME280;48553;50.766;2.900;2024-02-23T10:48:58;98381.13;;;5.98;100.00
60852;BME280;48553;50.766;2.900;2024-02-23T10:52:00;98393.97;;;6.01;100.00
60852;BME280;48553;50.766;2.900;2024-02-23T10:55:04;98395.56;;;6.02;100.00
60852;BME280;48553;50.766;2.900;2024-02-23T10:58:06;98393.25;;;6.04;100.00
60852;BME280;48553;50.766;2.900;2024-02-23T11:01:13;98391.31;;;6.05;100.00
60852;BME280;48553;50.766;2.900;2024-02-23T11:04:15;98378.94;;;6.07;100.00
60852;BME280;48553;50.766;2.900;2024-02-23T11:07:19;98388.59;;;6.05;100.00
60852;BME280;48553;50.766;2.900;2024-02-23T11:10:22;98382.44;;;6.08;100.00
60852;BME280;48553;50.766;2.900;2024-02-23T11:13:33;98371.28;;;6.13;100.00
60852;BME280;48553;50.766;2.900;2024-02-23T11:16:38;98373.25;;;6.16;100.00
60852;BME280;48553;50.766;2.900;2024-02-23T11:19:40;98377.16;;;6.19;100.00
60852;BME280;48553;50.766;2.900;2024-02-23T11:22:41;98376.06;;;6.23;100.00
60852;BME280;48553;50.766;2.900;2024-02-23T11:25:41;98367.16;;;6.26;100.00
60852;BME280;48553;50.766;2.900;2024-02-23T11:28:43;98373.13;;;6.36;100.00
60852;BME280;48553;50.766;2.900;2024-02-23T11:31:45;98388.59;;;6.55;100.00
60852;BME280;48553;50.766;2.900;2024-02-23T11:34:56;98388.44;;;6.71;100.00
60852;BME280;48553;50.766;2.900;2024-02-23T11:38:03;98388.19;;;6.83;100.00
60852;BME280;48553;50.766;2.900;2024-02-23T11:41:06;98379.25;;;6.82;100.00
60852;BME280;48553;50.766;2.900;2024-02-23T11:44:06;98381.09;;;6.75;100.00
60852;BME280;48553;50.766;2.900;2024-02-23T11:47:07;98376.03;;;6.77;100.00
60852;BME280;48553;50.766;2.900;2024-02-23T11:50:11;98380.41;;;6.81;100.00
60852;BME280;48553;50.766;2.900;2024-02-23T11:53:12;98366.00;;;6.81;100.00
60852;BME280;48553;50.766;2.900;2024-02-23T11:56:13;98368.72;;;6.81;100.00
60852;BME280;48553;50.766;2.900;2024-02-23T11:59:14;98360.97;;;6.83;100.00
60852;BME280;48553;50.766;2.900;2024-02-23T12:02:14;98357.41;;;6.79;100.00
60852;BME280;48553;50.766;2.900;2024-02-23T12:05:15;98353.91;;;6.78;100.00
60852;BME280;48553;50.766;2.900;2024-02-23T12:08:16;98353.56;;;6.83;100.00
60852;BME280;48553;50.766;2.900;2024-02-23T12:11:17;98348.25;;;6.90;100.00
60852;BME280;48553;50.766;2.900;2024-02-23T12:14:17;98330.47;;;7.00;100.00
60852;BME280;48553;50.766;2.900;2024-02-23T12:17:18;98337.94;;;7.07;100.00
60852;BME280;48553;50.766;2.900;2024-02-23T12:20:18;98336.03;;;7.11;100.00
60852;BME280;48553;50.766;2.900;2024-02-23T12:23:21;98333.31;;;7.11;100.00
60852;BME280;48553;50.766;2.900;2024-02-23T12:26:21;98325.13;;;7.11;100.00
60852;BME280;48553;50.766;2.900;2024-02-23T12:29:22;98325.50;;;7.09;100.00
60852;BME280;48553;50.766;2.900;2024-02-23T12:32:23;98325.13;;;7.11;100.00
60852;BME280;48553;50.766;2.900;2024-02-23T12:35:23;98320.06;;;7.09;100.00
60852;BME280;48553;50.766;2.900;2024-02-23T12:38:24;98322.78;;;7.09;100.00
60852;BME280;48553;50.766;2.900;2024-02-23T12:41:25;98330.94;;;7.09;100.00
60852;BME280;48553;50.766;2.900;2024-02-23T12:44:25;98321.59;;;7.10;100.00
60852;BME280;48553;50.766;2.900;2024-02-23T12:47:26;98321.28;;;7.16;100.00
60852;BME280;48553;50.766;2.900;2024-02-23T12:50:30;98325.63;;;7.20;100.00
60852;BME280;48553;50.766;2.900;2024-02-23T12:53:34;98328.41;;;7.27;100.00
60852;BME280;48553;50.766;2.900;2024-02-23T12:56:36;98316.81;;;7.34;100.00
60852;BME280;48553;50.766;2.900;2024-02-23T12:59:36;98315.28;;;7.37;100.00
60852;BME280;48553;50.766;2.900;2024-02-23T13:02:37;98310.97;;;7.36;100.00
60852;BME280;48553;50.766;2.900;2024-02-23T13:05:37;98313.69;;;7.32;100.00
60852;BME280;48553;50.766;2.900;2024-02-23T13:08:38;98312.84;;;7.28;100.00
60852;BME280;48553;50.766;2.900;2024-02-23T13:11:40;98313.19;;;7.23;100.00
60852;BME280;48553;50.766;2.900;2024-02-23T13:14:41;98320.19;;;7.24;100.00
60852;BME280;48553;50.766;2.900;2024-02-23T13:17:41;98323.75;;;7.28;100.00
60852;BME280;48553;50.766;2.900;2024-02-23T13:20:42;98316.03;;;7.34;100.00
60852;BME280;48553;50.766;2.900;2024-02-23T13:23:42;98307.06;;;7.33;100.00
60852;BME280;48553;50.766;2.900;2024-02-23T13:26:43;98299.44;;;7.49;100.00
60852;BME280;48553;50.766;2.900;2024-02-23T13:29:43;98303.44;;;7.63;100.00
60852;BME280;48553;50.766;2.900;2024-02-23T13:32:44;98298.19;;;7.88;100.00
60852;BME280;48553;50.766;2.900;2024-02-23T13:35:44;98324.09;;;8.12;100.00
60852;BME280;48553;50.766;2.900;2024-02-23T13:38:45;98315.66;;;8.31;100.00
60852;BME280;48553;50.766;2.900;2024-02-23T13:41:45;98307.16;;;8.44;100.00
60852;BME280;48553;50.766;2.900;2024-02-23T13:44:45;98299.03;;;8.54;100.00
60852;BME280;48553;50.766;2.900;2024-02-23T13:50:58;98303.00;;;8.68;100.00
60852;BME280;48553;50.766;2.900;2024-02-23T13:54:03;98306.91;;;8.74;100.00
60852;BME280;48553;50.766;2.900;2024-02-23T13:57:03;98305.38;;;8.76;100.00
60852;BME280;48553;50.766;2.900;2024-02-23T14:00:04;98307.66;;;8.67;100.00
60852;BME280;48553;50.766;2.900;2024-02-23T14:03:08;98299.84;;;8.59;100.00
60852;BME280;48553;50.766;2.900;2024-02-23T14:06:10;98306.44;;;8.50;100.00
60852;BME280;48553;50.766;2.900;2024-02-23T14:09:11;98311.06;;;8.43;100.00
60852;BME280;48553;50.766;2.900;2024-02-23T14:12:11;98306.34;;;8.40;100.00
60852;BME280;48553;50.766;2.900;2024-02-23T14:15:12;98295.41;;;8.36;100.00
60852;BME280;48553;50.766;2.900;2024-02-23T14:18:12;98295.38;;;8.32;100.00
60852;BME280;48553;50.766;2.900;2024-02-23T14:21:13;98285.97;;;8.26;100.00
60852;BME280;48553;50.766;2.900;2024-02-23T14:24:14;98297.28;;;8.28;100.00
60852;BME280;48553;50.766;2.900;2024-02-23T14:27:14;98284.09;;;8.34;100.00
60852;BME280;48553;50.766;2.900;2024-02-23T14:30:15;98293.16;;;8.49;100.00
60852;BME280;48553;50.766;2.900;2024-02-23T14:33:15;98288.13;;;8.58;100.00
60852;BME280;48553;50.766;2.900;2024-02-23T14:36:17;98291.63;;;8.55;100.00
60852;BME280;48553;50.766;2.900;2024-02-23T14:39:18;98283.03;;;8.49;100.00
60852;BME280;48553;50.766;2.900;2024-02-23T14:42:18;98292.34;;;8.41;100.00
60852;BME280;48553;50.766;2.900;2024-02-23T14:45:19;98291.09;;;8.35;100.00
60852;BME280;48553;50.766;2.900;2024-02-23T14:48:19;98291.09;;;8.31;100.00
60852;BME280;48553;50.766;2.900;2024-02-23T14:51:20;98293.03;;;8.27;100.00
60852;BME280;48553;50.766;2.900;2024-02-23T14:54:20;98284.00;;;8.20;100.00
60852;BME280;48553;50.766;2.900;2024-02-23T14:57:20;98284.75;;;8.16;100.00
60852;BME280;48553;50.766;2.900;2024-02-23T15:00:22;98278.91;;;8.11;100.00
60852;BME280;48553;50.766;2.900;2024-02-23T15:03:22;98283.13;;;8.05;100.00
60852;BME280;48553;50.766;2.900;2024-02-23T15:06:23;98285.81;;;8.01;100.00
60852;BME280;48553;50.766;2.900;2024-02-23T15:09:24;98293.19;;;7.93;100.00
60852;BME280;48553;50.766;2.900;2024-02-23T15:12:24;98284.97;;;7.90;100.00
60852;BME280;48553;50.766;2.900;2024-02-23T15:15:28;98300.13;;;7.87;100.00
60852;BME280;48553;50.766;2.900;2024-02-23T15:18:28;98293.88;;;7.83;100.00
60852;BME280;48553;50.766;2.900;2024-02-23T15:24:29;98342.91;;;7.76;100.00
60852;BME280;48553;50.766;2.900;2024-02-23T15:27:30;98346.69;;;7.64;100.00
60852;BME280;48553;50.766;2.900;2024-02-23T15:30:30;98343.84;;;7.53;100.00
60852;BME280;48553;50.766;2.900;2024-02-23T15:33:32;98348.00;;;7.40;100.00
60852;BME280;48553;50.766;2.900;2024-02-23T15:36:33;98352.59;;;7.32;100.00
60852;BME280;48553;50.766;2.900;2024-02-23T15:39:33;98345.59;;;7.31;100.00
60852;BME280;48553;50.766;2.900;2024-02-23T15:42:33;98337.00;;;7.29;100.00
60852;BME280;48553;50.766;2.900;2024-02-23T15:45:35;98323.34;;;7.26;100.00
60852;BME280;48553;50.766;2.900;2024-02-23T15:48:36;98319.06;;;7.25;100.00
60852;BME280;48553;50.766;2.900;2024-02-23T15:51:37;98319.41;;;7.23;100.00
60852;BME280;48553;50.766;2.900;2024-02-23T15:54:38;98314.72;;;7.20;100.00
60852;BME280;48553;50.766;2.900;2024-02-23T15:57:39;98308.47;;;7.20;100.00
60852;BME280;48553;50.766;2.900;2024-02-23T16:00:39;98301.06;;;7.17;100.00
60852;BME280;48553;50.766;2.900;2024-02-23T16:03:40;98322.44;;;7.15;100.00